createdAt,value
2022-09-15T00:01:31.220Z,87.65
2022-09-15T00:02:31.696Z,87.95
2022-09-15T00:03:33.198Z,87.74
2022-09-15T00:04:31.406Z,87.65
2022-09-15T00:05:31.417Z,87.51
2022-09-15T00:06:31.378Z,87.65
2022-09-15T00:07:31.375Z,87.74
2022-09-15T00:08:31.405Z,87.85
2022-09-15T00:09:31.352Z,87.95
2022-09-15T00:10:31.367Z,87.74
2022-09-15T00:11:31.336Z,87.85
2022-09-15T00:12:31.317Z,87.74
2022-09-15T00:13:31.311Z,87.85
2022-09-15T00:14:31.332Z,87.54
2022-09-15T00:15:31.341Z,87.95
2022-09-15T00:16:31.366Z,87.74
2022-09-15T00:17:31.260Z,87.45
2022-09-15T00:18:31.261Z,87.74
2022-09-15T00:19:31.253Z,87.74
2022-09-15T00:20:31.268Z,87.74
2022-09-15T00:21:31.237Z,87.65
2022-09-15T00:22:31.223Z,87.74
2022-09-15T00:23:31.201Z,87.85
2022-09-15T00:24:31.191Z,88.05
2022-09-15T00:25:31.201Z,88.20
2022-09-15T00:26:31.191Z,88.20
2022-09-15T00:27:31.164Z,88.40
2022-09-15T00:28:31.163Z,88.46
2022-09-15T00:29:31.154Z,88.60
2022-09-15T00:30:31.181Z,88.70
2022-09-15T00:31:31.156Z,88.70
2022-09-15T00:32:31.112Z,88.70
2022-09-15T00:33:31.104Z,88.66
2022-09-15T00:34:31.112Z,88.49
2022-09-15T00:35:31.091Z,88.25
2022-09-15T00:36:31.085Z,88.15
2022-09-15T00:37:31.078Z,88.25
2022-09-15T00:38:31.054Z,88.40
2022-09-15T00:39:31.034Z,88.46
2022-09-15T00:40:31.107Z,88.70
2022-09-15T00:41:31.046Z,88.70
2022-09-15T00:42:31.016Z,88.80
2022-09-15T00:43:31.016Z,88.90
2022-09-15T00:44:30.996Z,88.90
2022-09-15T00:45:31.023Z,89.21
2022-09-15T00:46:30.999Z,89.41
2022-09-15T00:47:30.985Z,89.31
2022-09-15T00:48:30.955Z,89.51
2022-09-15T00:49:30.924Z,89.61
2022-09-15T00:50:30.926Z,89.41
2022-09-15T00:51:30.937Z,89.61
2022-09-15T00:52:30.935Z,89.61
2022-09-15T00:53:30.889Z,89.61
2022-09-15T00:54:30.878Z,89.61
2022-09-15T00:55:30.894Z,89.81
2022-09-15T00:56:30.889Z,89.92
2022-09-15T00:57:30.858Z,89.92
2022-09-15T00:58:30.857Z,89.81
2022-09-15T00:59:30.834Z,90.02
2022-09-15T01:00:30.821Z,90.02
2022-09-15T01:01:30.930Z,90.02
2022-09-15T01:02:30.851Z,89.92
2022-09-15T01:03:30.792Z,89.92
2022-09-15T01:04:30.780Z,90.16
2022-09-15T01:05:30.759Z,90.26
2022-09-15T01:06:30.777Z,90.36
2022-09-15T01:07:30.773Z,90.26
2022-09-15T01:08:30.751Z,90.36
2022-09-15T01:09:30.717Z,90.16
2022-09-15T01:10:30.887Z,90.36
2022-09-15T01:11:30.713Z,90.26
2022-09-15T01:12:30.710Z,90.36
2022-09-15T01:13:30.682Z,90.57
2022-09-15T01:14:30.682Z,90.67
2022-09-15T01:15:30.652Z,90.77
2022-09-15T01:16:30.703Z,90.88
2022-09-15T01:17:30.666Z,91.08
2022-09-15T01:18:30.625Z,91.22
2022-09-15T01:19:30.615Z,91.22
2022-09-15T01:20:30.614Z,91.32
2022-09-15T01:21:30.591Z,91.32
2022-09-15T01:22:30.613Z,91.52
2022-09-15T01:23:30.583Z,91.52
2022-09-15T01:24:30.577Z,91.83
2022-09-15T01:25:30.561Z,91.73
2022-09-15T01:26:30.560Z,91.73
2022-09-15T01:27:41.999Z,91.73
2022-09-15T01:28:31.544Z,91.63
2022-09-15T01:29:30.525Z,91.73
2022-09-15T01:30:30.506Z,91.73
2022-09-15T01:31:30.518Z,91.83
2022-09-15T01:32:30.502Z,91.83
2022-09-15T01:33:30.477Z,91.83
2022-09-15T01:34:30.455Z,92.03
2022-09-15T01:35:30.450Z,91.93
2022-09-15T01:36:30.456Z,91.93
2022-09-15T01:37:30.459Z,91.93
2022-09-15T01:38:30.421Z,91.93
2022-09-15T01:39:30.408Z,91.83
2022-09-15T01:40:30.439Z,91.83
2022-09-15T01:41:30.388Z,91.93
2022-09-15T01:42:30.399Z,92.03
2022-09-15T01:43:30.397Z,92.13
2022-09-15T01:44:30.357Z,92.07
2022-09-15T01:45:30.407Z,92.03
2022-09-15T01:46:30.351Z,92.38
2022-09-15T01:47:30.326Z,92.48
2022-09-15T01:48:30.339Z,92.28
2022-09-15T01:49:30.310Z,92.13
2022-09-15T01:50:30.291Z,92.28
2022-09-15T01:51:30.280Z,92.33
2022-09-15T01:52:30.284Z,92.18
2022-09-15T01:53:30.296Z,92.33
2022-09-15T01:54:30.284Z,92.48
2022-09-15T01:55:30.253Z,92.58
2022-09-15T01:56:30.231Z,92.48
2022-09-15T01:57:30.250Z,92.48
2022-09-15T01:58:30.242Z,92.48
2022-09-15T01:59:30.208Z,92.48
2022-09-15T02:00:30.194Z,92.24
2022-09-15T02:01:30.253Z,92.28
2022-09-15T02:02:30.249Z,92.38
2022-09-15T02:03:30.185Z,92.58
2022-09-15T02:04:30.165Z,92.48
2022-09-15T02:05:30.157Z,92.38
2022-09-15T02:06:30.143Z,92.48
2022-09-15T02:07:30.135Z,92.58
2022-09-15T02:08:30.147Z,92.58
2022-09-15T02:09:30.102Z,92.68
2022-09-15T02:10:30.083Z,92.68
2022-09-15T02:11:30.093Z,92.68
2022-09-15T02:12:30.074Z,92.68
2022-09-15T02:13:30.074Z,92.68
2022-09-15T02:14:30.045Z,92.68
2022-09-15T02:15:30.048Z,92.68
2022-09-15T02:16:30.098Z,92.58
2022-09-15T02:17:30.034Z,92.48
2022-09-15T02:18:30.033Z,92.38
2022-09-15T02:19:30.002Z,92.28
2022-09-15T02:20:29.979Z,92.38
2022-09-15T02:21:29.986Z,92.38
2022-09-15T02:22:29.967Z,92.48
2022-09-15T02:23:29.968Z,92.38
2022-09-15T02:24:30.044Z,92.38
2022-09-15T02:25:29.947Z,92.38
2022-09-15T02:26:29.939Z,92.38
2022-09-15T02:27:29.937Z,92.48
2022-09-15T02:28:29.900Z,92.58
2022-09-15T02:29:29.888Z,92.68
2022-09-15T02:30:29.891Z,92.58
2022-09-15T02:31:29.927Z,92.28
2022-09-15T02:32:29.866Z,92.48
2022-09-15T02:33:29.856Z,92.28
2022-09-15T02:34:29.852Z,92.28
2022-09-15T02:35:29.833Z,92.28
2022-09-15T02:36:29.842Z,92.38
2022-09-15T02:37:29.822Z,92.38
2022-09-15T02:38:29.811Z,92.18
2022-09-15T02:39:29.813Z,92.28
2022-09-15T02:40:29.889Z,92.38
2022-09-15T02:41:29.853Z,92.58
2022-09-15T02:42:29.791Z,92.68
2022-09-15T02:43:29.752Z,92.79
2022-09-15T02:44:29.748Z,92.93
2022-09-15T02:45:29.775Z,93.03
2022-09-15T02:46:29.734Z,92.93
2022-09-15T02:47:29.744Z,93.13
2022-09-15T02:48:29.704Z,93.24
2022-09-15T02:49:29.696Z,93.13
2022-09-15T02:50:29.683Z,93.24
2022-09-15T02:51:29.672Z,93.33
2022-09-15T02:52:29.682Z,93.44
2022-09-15T02:53:29.652Z,93.54
2022-09-15T02:54:29.641Z,93.54
2022-09-15T02:55:29.632Z,93.64
2022-09-15T02:56:29.626Z,93.64
2022-09-15T02:57:29.634Z,93.64
2022-09-15T02:58:29.614Z,93.54
2022-09-15T02:59:29.606Z,93.64
2022-09-15T03:00:29.567Z,93.64
2022-09-15T03:01:29.614Z,93.54
2022-09-15T03:02:29.607Z,93.54
2022-09-15T03:03:29.563Z,93.44
2022-09-15T03:04:29.546Z,93.33
2022-09-15T03:05:29.525Z,93.54
2022-09-15T03:06:29.548Z,93.44
2022-09-15T03:07:29.507Z,93.44
2022-09-15T03:08:29.508Z,93.33
2022-09-15T03:13:50.364Z,93.44
2022-09-15T03:14:50.655Z,93.54
2022-09-15T03:15:50.623Z,93.54
2022-09-15T03:16:50.666Z,93.59
2022-09-15T03:24:48.233Z,93.99
2022-09-15T03:25:18.960Z,93.79
2022-09-15T03:27:45.168Z,93.89
2022-09-15T03:28:57.154Z,93.89
2022-09-15T03:29:49.314Z,93.99
2022-09-15T03:30:49.029Z,94.20
2022-09-15T03:31:49.859Z,94.09
2022-09-15T03:32:34.729Z,93.89
2022-09-15T03:33:55.704Z,93.89
2022-09-15T03:34:58.461Z,93.89
2022-09-15T03:35:51.939Z,93.89
2022-09-15T03:36:57.741Z,93.99
2022-09-15T03:37:55.670Z,93.99
2022-09-15T03:38:50.976Z,93.99
2022-09-15T03:39:56.382Z,94.04
2022-09-15T03:40:55.645Z,94.13
2022-09-15T03:41:55.620Z,94.04
2022-09-15T03:42:55.977Z,93.99
2022-09-15T03:43:57.654Z,94.24
2022-09-15T03:44:55.635Z,94.34
2022-09-15T03:46:05.867Z,94.24
2022-09-15T03:47:04.182Z,94.13
2022-09-15T03:47:34.549Z,94.34
2022-09-15T03:48:46.193Z,94.54
2022-09-15T03:50:05.879Z,94.34
2022-09-15T03:51:10.461Z,94.24
2022-09-15T03:53:11.428Z,94.24
2022-09-15T03:54:03.075Z,94.44
2022-09-15T03:55:03.077Z,94.44
2022-09-15T03:56:04.775Z,94.44
2022-09-15T03:57:53.918Z,94.54
2022-09-15T03:58:55.216Z,94.54
2022-09-15T03:59:54.160Z,94.54
2022-09-15T04:00:54.207Z,94.34
2022-09-15T04:01:54.239Z,94.34
2022-09-15T04:02:54.174Z,94.34
2022-09-15T04:03:54.096Z,94.24
2022-09-15T04:04:54.075Z,94.34
2022-09-15T04:05:54.088Z,94.64
2022-09-15T04:06:54.066Z,94.44
2022-09-15T04:07:54.048Z,94.74
2022-09-15T04:08:54.045Z,94.95
2022-09-15T04:09:54.028Z,94.85
2022-09-15T04:10:54.054Z,94.74
2022-09-15T04:11:54.000Z,94.64
2022-09-15T04:12:53.989Z,94.64
2022-09-15T04:13:53.996Z,94.74
2022-09-15T04:14:53.975Z,94.54
2022-09-15T04:15:54.003Z,94.54
2022-09-15T04:16:53.978Z,94.44
2022-09-15T04:17:53.959Z,94.44
2022-09-15T04:18:53.930Z,94.64
2022-09-15T04:19:53.936Z,94.85
2022-09-15T04:20:53.918Z,94.74
2022-09-15T04:21:53.957Z,94.85
2022-09-15T04:22:53.902Z,94.85
2022-09-15T04:23:53.889Z,94.85
2022-09-15T04:24:53.894Z,94.64
2022-09-15T04:25:53.852Z,94.64
2022-09-15T04:26:53.891Z,94.85
2022-09-15T04:27:53.853Z,94.64
2022-09-15T04:28:53.843Z,94.64
2022-09-15T04:29:53.871Z,94.44
2022-09-15T04:30:53.813Z,94.24
2022-09-15T04:31:53.953Z,94.20
2022-09-15T04:32:53.795Z,94.24
2022-09-15T04:33:53.777Z,94.40
2022-09-15T04:34:53.797Z,93.99
2022-09-15T04:35:53.761Z,93.89
2022-09-15T04:36:53.765Z,93.68
2022-09-15T04:37:53.734Z,93.59
2022-09-15T04:38:53.765Z,93.59
2022-09-15T04:39:53.789Z,93.59
2022-09-15T04:40:53.717Z,93.48
2022-09-15T04:41:53.726Z,93.28
2022-09-15T04:42:53.690Z,93.18
2022-09-15T04:43:53.789Z,93.48
2022-09-15T04:44:53.672Z,93.79
2022-09-15T04:45:53.662Z,93.59
2022-09-15T04:46:53.748Z,93.68
2022-09-15T04:47:53.638Z,93.28
2022-09-15T04:48:53.627Z,92.97
2022-09-15T04:49:53.628Z,92.97
2022-09-15T04:50:53.610Z,93.07
2022-09-15T04:51:53.593Z,92.97
2022-09-15T04:52:53.627Z,92.97
2022-09-15T04:53:53.580Z,93.07
2022-09-15T04:54:53.569Z,93.07
2022-09-15T04:55:53.561Z,92.97
2022-09-15T04:56:53.561Z,92.97
2022-09-15T04:57:53.561Z,92.97
2022-09-15T04:58:53.567Z,92.87
2022-09-15T04:59:53.526Z,93.07
2022-09-15T05:00:53.595Z,92.77
2022-09-15T05:01:53.541Z,92.97
2022-09-15T05:02:53.503Z,92.97
2022-09-15T05:03:53.466Z,92.97
2022-09-15T05:04:53.470Z,93.38
2022-09-15T05:05:53.453Z,93.13
2022-09-15T05:06:53.433Z,92.72
2022-09-15T05:07:53.459Z,92.63
2022-09-15T05:08:53.613Z,92.63
2022-09-15T05:09:53.405Z,92.42
2022-09-15T05:10:53.402Z,92.32
2022-09-15T05:11:53.380Z,92.42
2022-09-15T05:12:53.445Z,92.42
2022-09-15T05:13:53.450Z,92.32
2022-09-15T05:14:53.364Z,92.63
2022-09-15T05:15:53.399Z,92.72
2022-09-15T05:16:53.341Z,92.42
2022-09-15T05:17:53.348Z,92.07
2022-09-15T05:18:53.330Z,91.87
2022-09-15T05:19:53.343Z,91.67
2022-09-15T05:20:53.317Z,91.67
2022-09-15T05:21:53.328Z,91.47
2022-09-15T05:22:53.268Z,91.67
2022-09-15T05:23:53.333Z,91.16
2022-09-15T05:24:53.278Z,91.32
2022-09-15T05:25:53.268Z,90.47
2022-09-15T05:26:53.232Z,88.15
2022-09-15T05:27:53.235Z,86.45
2022-09-15T05:28:53.292Z,84.14
2022-09-15T05:30:09.735Z,83.19
2022-09-15T05:30:54.307Z,81.74
2022-09-15T05:31:53.213Z,80.08
2022-09-15T05:32:53.198Z,79.54
2022-09-15T05:33:53.159Z,78.70
2022-09-15T05:34:53.147Z,77.86
2022-09-15T05:35:53.136Z,77.25
2022-09-15T05:36:53.135Z,77.25
2022-09-15T05:37:53.145Z,76.40
2022-09-15T05:38:53.097Z,75.67
2022-09-15T05:39:53.131Z,74.96
2022-09-15T05:40:53.097Z,74.86
2022-09-15T05:41:53.246Z,75.06
2022-09-15T05:42:53.094Z,74.55
2022-09-15T05:43:53.117Z,74.22
2022-09-15T05:44:53.059Z,74.12
2022-09-15T05:45:53.039Z,73.98
2022-09-15T05:46:53.121Z,73.14
2022-09-15T05:47:53.064Z,72.00
2022-09-15T05:48:52.999Z,71.33
2022-09-15T05:49:52.993Z,72.77
2022-09-15T05:50:52.989Z,73.72
2022-09-15T05:51:53.006Z,72.94
2022-09-15T05:52:52.990Z,74.83
2022-09-15T05:53:53.014Z,76.64
2022-09-15T05:54:55.786Z,75.74
2022-09-15T05:55:53.937Z,76.28
2022-09-15T05:56:52.962Z,76.64
2022-09-15T05:57:52.931Z,76.28
2022-09-15T05:58:53.078Z,76.24
2022-09-15T05:59:52.924Z,76.58
2022-09-15T06:00:52.914Z,76.82
2022-09-15T06:01:52.993Z,77.99
2022-09-15T06:02:52.915Z,76.84
2022-09-15T06:03:53.041Z,76.00
2022-09-15T06:04:52.892Z,74.39
2022-09-15T06:05:52.834Z,74.69
2022-09-15T06:06:52.814Z,74.42
2022-09-15T06:07:52.842Z,73.55
2022-09-15T06:08:57.009Z,74.63
2022-09-15T06:09:53.784Z,77.06
2022-09-15T06:10:52.894Z,78.95
2022-09-15T06:11:52.781Z,80.71
2022-09-15T06:12:52.756Z,81.41
2022-09-15T06:13:52.852Z,81.35
2022-09-15T06:14:52.768Z,81.65
2022-09-15T06:15:52.786Z,82.10
2022-09-15T06:16:52.707Z,82.60
2022-09-15T06:17:52.717Z,82.84
2022-09-15T06:18:52.984Z,83.04
2022-09-15T06:19:52.709Z,83.80
2022-09-15T06:20:52.682Z,84.41
2022-09-15T06:21:52.667Z,84.50
2022-09-15T06:22:52.656Z,84.64
2022-09-15T06:23:52.751Z,84.85
2022-09-15T06:24:52.864Z,85.25
2022-09-15T06:25:52.612Z,85.15
2022-09-15T06:26:52.618Z,85.56
2022-09-15T06:27:52.596Z,85.15
2022-09-15T06:28:52.665Z,85.05
2022-09-15T06:29:52.625Z,84.95
2022-09-15T06:30:52.651Z,84.85
2022-09-15T06:31:52.600Z,84.41
2022-09-15T06:32:52.542Z,84.50
2022-09-15T06:33:52.779Z,84.47
2022-09-15T06:34:52.530Z,83.31
2022-09-15T06:35:52.529Z,82.81
2022-09-15T06:36:52.526Z,83.11
2022-09-15T06:37:52.484Z,82.64
2022-09-15T06:38:52.683Z,83.35
2022-09-15T06:39:52.494Z,82.95
2022-09-15T06:40:52.484Z,83.15
2022-09-15T06:42:02.139Z,83.80
2022-09-15T06:42:53.474Z,83.80
2022-09-15T06:43:52.622Z,83.80
2022-09-15T06:44:52.497Z,83.39
2022-09-15T06:45:52.441Z,83.49
2022-09-15T06:46:52.407Z,83.80
2022-09-15T06:48:13.369Z,83.80
2022-09-15T06:48:53.501Z,84.27
2022-09-15T06:49:52.579Z,83.25
2022-09-15T06:50:52.591Z,83.25
2022-09-15T06:51:52.392Z,83.35
2022-09-15T06:52:52.530Z,82.70
2022-09-15T06:53:52.551Z,83.31
2022-09-15T06:54:52.367Z,82.90
2022-09-15T06:55:52.469Z,82.60
2022-09-15T06:56:52.482Z,82.90
2022-09-15T06:57:52.582Z,82.20
2022-09-15T06:58:52.412Z,82.30
2022-09-15T06:59:53.123Z,82.50
2022-09-15T07:00:52.244Z,82.10
2022-09-15T07:01:52.337Z,82.30
2022-09-15T07:02:52.433Z,82.64
2022-09-15T07:03:53.427Z,83.15
2022-09-15T07:04:52.387Z,83.11
2022-09-15T07:05:52.275Z,82.70
2022-09-15T07:06:52.336Z,82.60
2022-09-15T07:07:52.426Z,82.30
2022-09-15T07:08:52.400Z,82.40
2022-09-15T07:09:52.282Z,82.30
2022-09-15T07:10:52.308Z,82.40
2022-09-15T07:11:52.215Z,82.40
2022-09-15T07:12:52.326Z,82.40
2022-09-15T07:13:52.472Z,82.50
2022-09-15T07:14:52.185Z,82.97
2022-09-15T07:15:52.231Z,81.85
2022-09-15T07:16:52.247Z,81.99
2022-09-15T07:17:52.236Z,82.30
2022-09-15T07:18:52.301Z,82.20
2022-09-15T07:19:52.195Z,82.16
2022-09-15T07:20:52.365Z,82.06
2022-09-15T07:21:52.226Z,81.96
2022-09-15T07:22:52.064Z,81.96
2022-09-15T07:23:52.314Z,81.65
2022-09-15T07:24:52.308Z,81.55
2022-09-15T07:25:52.333Z,81.45
2022-09-15T07:26:52.113Z,82.06
2022-09-15T07:27:52.275Z,82.50
2022-09-15T07:28:52.480Z,82.40
2022-09-15T07:29:52.187Z,83.04
2022-09-15T07:30:52.091Z,82.95
2022-09-15T07:31:51.983Z,82.81
2022-09-15T07:32:51.936Z,82.81
2022-09-15T07:33:52.265Z,82.36
2022-09-15T07:34:56.503Z,82.26
2022-09-15T07:35:52.902Z,81.85
2022-09-15T07:36:51.881Z,82.02
2022-09-15T07:37:51.872Z,81.41
2022-09-15T07:38:51.893Z,81.41
2022-09-15T07:39:55.956Z,80.91
2022-09-15T07:40:51.901Z,81.21
2022-09-15T07:41:51.927Z,81.01
2022-09-15T07:42:51.825Z,81.11
2022-09-15T07:43:51.910Z,80.80
2022-09-15T07:44:51.821Z,81.05
2022-09-15T07:45:51.811Z,81.35
2022-09-15T07:46:51.781Z,81.65
2022-09-15T07:47:51.761Z,81.90
2022-09-15T07:48:52.102Z,82.40
2022-09-15T07:49:51.805Z,82.81
2022-09-15T07:50:51.748Z,82.26
2022-09-15T07:51:51.735Z,81.65
2022-09-15T07:52:51.729Z,81.76
2022-09-15T07:53:51.752Z,82.06
2022-09-15T07:54:51.710Z,81.65
2022-09-15T07:55:51.686Z,82.06
2022-09-15T07:56:51.667Z,81.11
2022-09-15T07:57:51.679Z,80.71
2022-09-15T07:58:51.697Z,81.01
2022-09-15T07:59:51.662Z,81.01
2022-09-15T08:00:51.728Z,80.80
2022-09-15T08:01:51.750Z,80.71
2022-09-15T08:02:51.616Z,80.71
2022-09-15T08:03:51.730Z,80.40
2022-09-15T08:04:51.579Z,80.44
2022-09-15T08:05:51.574Z,81.05
2022-09-15T08:06:51.559Z,81.15
2022-09-15T08:07:51.550Z,81.25
2022-09-15T08:08:55.059Z,81.35
2022-09-15T08:09:51.555Z,81.21
2022-09-15T08:10:51.511Z,81.68
2022-09-15T08:11:51.511Z,81.17
2022-09-15T08:12:51.492Z,79.86
2022-09-15T08:13:51.522Z,79.46
2022-09-15T08:14:51.522Z,79.35
2022-09-15T08:15:51.485Z,79.32
2022-09-15T08:16:51.461Z,79.52
2022-09-15T08:17:51.450Z,78.91
2022-09-15T08:18:51.643Z,79.25
2022-09-15T08:19:51.443Z,79.21
2022-09-15T08:20:51.447Z,79.25
2022-09-15T08:21:51.425Z,79.52
2022-09-15T08:22:51.405Z,79.68
2022-09-15T08:23:51.883Z,78.57
2022-09-15T08:24:51.390Z,77.93
2022-09-15T08:25:51.375Z,77.99
2022-09-15T08:26:51.352Z,76.98
2022-09-15T08:27:51.367Z,77.19
2022-09-15T08:28:51.402Z,76.72
2022-09-15T08:29:51.347Z,76.92
2022-09-15T08:30:51.378Z,76.82
2022-09-15T08:31:51.296Z,76.72
2022-09-15T08:32:51.301Z,77.42
2022-09-15T08:33:51.309Z,77.83
2022-09-15T08:34:51.305Z,77.32
2022-09-15T08:35:51.268Z,77.93
2022-09-15T08:36:51.246Z,76.78
2022-09-15T08:37:51.254Z,76.48
2022-09-15T08:38:51.356Z,76.51
2022-09-15T08:39:51.270Z,77.93
2022-09-15T08:40:51.229Z,76.48
2022-09-15T08:41:51.239Z,76.28
2022-09-15T08:42:51.179Z,76.07
2022-09-15T08:43:51.347Z,75.94
2022-09-15T08:44:51.209Z,76.75
2022-09-15T08:45:51.177Z,75.90
2022-09-15T08:46:51.231Z,74.69
2022-09-15T08:47:51.166Z,73.99
2022-09-15T08:48:51.130Z,74.08
2022-09-15T08:49:52.466Z,74.39
2022-09-15T08:50:51.114Z,74.69
2022-09-15T08:51:52.078Z,74.83
2022-09-15T08:52:51.082Z,75.23
2022-09-15T08:53:51.108Z,75.77
2022-09-15T08:54:51.094Z,76.18
2022-09-15T08:55:51.045Z,76.28
2022-09-15T08:56:51.051Z,76.18
2022-09-15T08:57:51.025Z,75.91
2022-09-15T08:58:51.009Z,75.91
2022-09-15T08:59:51.056Z,76.01
2022-09-15T09:00:51.021Z,76.25
2022-09-15T09:01:51.038Z,76.35
2022-09-15T09:02:51.015Z,76.25
2022-09-15T09:03:50.968Z,75.81
2022-09-15T09:04:50.984Z,75.60
2022-09-15T09:05:50.974Z,75.64
2022-09-15T09:06:50.971Z,76.25
2022-09-15T09:07:50.926Z,76.21
2022-09-15T09:08:51.054Z,75.81
2022-09-15T09:09:50.986Z,74.49
2022-09-15T09:10:50.907Z,73.99
2022-09-15T09:11:50.885Z,74.09
2022-09-15T09:12:50.891Z,74.40
2022-09-15T09:13:50.899Z,74.49
2022-09-15T09:14:50.859Z,74.80
2022-09-15T09:15:50.904Z,75.10
2022-09-15T09:16:50.834Z,74.80
2022-09-15T09:17:50.835Z,75.91
2022-09-15T09:18:50.819Z,75.10
2022-09-15T09:19:50.814Z,74.49
2022-09-15T09:20:50.810Z,74.80
2022-09-15T09:21:50.779Z,74.63
2022-09-15T09:22:50.763Z,74.84
2022-09-15T09:23:50.779Z,74.60
2022-09-15T09:24:50.767Z,74.09
2022-09-15T09:25:50.744Z,73.99
2022-09-15T09:26:50.730Z,74.19
2022-09-15T09:27:50.722Z,74.05
2022-09-15T09:28:50.719Z,74.16
2022-09-15T09:29:50.732Z,74.52
2022-09-15T09:30:50.762Z,73.65
2022-09-15T09:31:50.701Z,72.54
2022-09-15T09:32:50.662Z,72.54
2022-09-15T09:33:50.821Z,71.84
2022-09-15T09:34:50.675Z,71.94
2022-09-15T09:35:51.254Z,71.84
2022-09-15T09:36:50.759Z,72.04
2022-09-15T09:37:50.658Z,71.84
2022-09-15T09:38:50.596Z,72.81
2022-09-15T09:39:50.893Z,71.50
2022-09-15T09:40:50.579Z,71.50
2022-09-15T09:41:50.586Z,71.30
2022-09-15T09:42:50.575Z,71.40
2022-09-15T09:43:50.600Z,71.40
2022-09-15T09:44:50.576Z,71.70
2022-09-15T09:45:50.587Z,71.60
2022-09-15T09:46:50.522Z,71.91
2022-09-15T09:47:50.523Z,70.79
2022-09-15T09:48:50.523Z,70.89
2022-09-15T09:49:50.517Z,71.26
2022-09-15T09:50:50.485Z,71.84
2022-09-15T09:51:50.488Z,70.12
2022-09-15T09:52:50.480Z,69.92
2022-09-15T09:53:50.546Z,70.22
2022-09-15T09:54:50.478Z,70.73
2022-09-15T09:55:50.420Z,69.92
2022-09-15T09:56:50.430Z,69.72
2022-09-15T09:57:50.402Z,69.52
2022-09-15T09:58:50.391Z,69.49
2022-09-15T09:59:50.416Z,68.28
2022-09-15T10:00:50.380Z,68.38
2022-09-15T10:01:50.429Z,68.08
2022-09-15T10:02:50.380Z,68.58
2022-09-15T10:03:50.341Z,67.97
2022-09-15T10:04:50.390Z,68.08
2022-09-15T10:05:50.333Z,68.24
2022-09-15T10:06:50.305Z,68.44
2022-09-15T10:07:50.308Z,67.94
2022-09-15T10:08:50.285Z,67.64
2022-09-15T10:09:50.339Z,67.51
2022-09-15T10:10:50.278Z,66.80
2022-09-15T10:11:50.269Z,67.54
2022-09-15T10:12:50.258Z,67.24
2022-09-15T10:13:50.299Z,67.41
2022-09-15T10:14:52.024Z,65.87
2022-09-15T10:15:50.218Z,65.84
2022-09-15T10:16:50.263Z,65.33
2022-09-15T10:17:50.240Z,64.07
2022-09-15T10:18:54.140Z,63.76
2022-09-15T10:19:50.176Z,64.27
2022-09-15T10:20:50.165Z,63.67
2022-09-15T10:21:50.168Z,65.30
2022-09-15T10:22:50.167Z,64.70
2022-09-15T10:23:50.130Z,62.59
2022-09-15T10:24:50.143Z,62.62
2022-09-15T10:25:59.143Z,63.15
2022-09-15T10:26:55.969Z,64.09
2022-09-15T10:27:57.636Z,64.92
2022-09-15T10:29:04.878Z,64.52
2022-09-15T10:30:05.017Z,64.72
2022-09-15T10:31:04.680Z,64.86
2022-09-15T10:32:04.944Z,64.86
2022-09-15T10:33:05.041Z,65.62
2022-09-15T10:34:04.703Z,64.29
2022-09-15T10:35:11.029Z,63.56
2022-09-15T10:35:56.913Z,63.73
2022-09-15T10:37:04.570Z,63.32
2022-09-15T10:38:01.427Z,62.19
2022-09-15T10:39:04.126Z,61.41
2022-09-15T10:40:04.882Z,60.84
2022-09-15T10:41:04.507Z,61.14
2022-09-15T10:42:11.034Z,60.71
2022-09-15T10:42:56.955Z,60.28
2022-09-15T10:43:49.979Z,60.75
2022-09-15T10:45:20.815Z,59.92
2022-09-15T10:46:25.484Z,58.84
2022-09-15T10:47:10.931Z,60.05
2022-09-15T10:48:25.596Z,58.94
2022-09-15T10:49:29.282Z,59.25
2022-09-15T10:50:10.921Z,59.45
2022-09-15T10:50:49.871Z,58.62
2022-09-15T10:51:49.852Z,59.52
2022-09-15T10:52:49.867Z,58.49
2022-09-15T10:53:50.010Z,57.41
2022-09-15T10:54:53.746Z,58.42
2022-09-15T10:55:52.654Z,58.24
2022-09-15T10:56:49.805Z,58.14
2022-09-15T10:57:49.808Z,59.22
2022-09-15T10:58:49.828Z,58.11
2022-09-15T11:00:21.547Z,57.51
2022-09-15T11:01:05.875Z,58.62
2022-09-15T11:03:25.742Z,58.20
2022-09-15T11:04:02.124Z,58.40
2022-09-15T11:05:29.913Z,58.42
2022-09-15T11:06:05.419Z,59.48
2022-09-15T11:07:04.659Z,60.32
2022-09-15T11:07:59.525Z,60.72
2022-09-15T11:08:58.165Z,60.60
2022-09-15T11:09:58.179Z,59.92
2022-09-15T11:10:58.146Z,60.32
2022-09-15T11:11:58.142Z,60.63
2022-09-15T11:12:58.153Z,60.60
2022-09-15T11:13:58.137Z,60.89
2022-09-15T11:14:58.164Z,60.69
2022-09-15T11:15:58.138Z,60.89
2022-09-15T11:16:58.084Z,61.20
2022-09-15T11:17:58.081Z,61.53
2022-09-15T11:18:59.473Z,63.24
2022-09-15T11:19:58.048Z,61.63
2022-09-15T11:20:58.038Z,61.63
2022-09-15T11:21:58.041Z,62.44
2022-09-15T11:22:58.242Z,61.93
2022-09-15T11:23:58.017Z,62.13
2022-09-15T11:24:58.031Z,62.57
2022-09-15T11:25:57.989Z,62.77
2022-09-15T11:26:58.011Z,62.57
2022-09-15T11:27:57.998Z,62.16
2022-09-15T11:30:13.856Z,62.34
2022-09-15T11:31:10.911Z,62.54
2022-09-15T11:32:11.005Z,62.41
2022-09-15T11:33:10.870Z,62.21
2022-09-15T11:34:21.074Z,61.98
2022-09-15T11:35:10.830Z,61.57
2022-09-15T11:36:11.294Z,60.36
2022-09-15T11:37:10.831Z,60.57
2022-09-15T11:38:13.071Z,60.64
2022-09-15T11:39:22.248Z,60.24
2022-09-15T11:40:11.815Z,61.54
2022-09-15T11:41:10.791Z,60.31
2022-09-15T11:42:10.787Z,59.67
2022-09-15T11:43:10.769Z,59.27
2022-09-15T11:44:14.695Z,59.08
2022-09-15T11:45:11.774Z,59.08
2022-09-15T11:46:10.756Z,60.48
2022-09-15T11:47:10.742Z,59.58
2022-09-15T11:48:10.743Z,60.38
2022-09-15T11:49:10.722Z,59.67
2022-09-15T11:50:10.715Z,60.68
2022-09-15T11:51:10.706Z,59.70
2022-09-15T11:52:10.658Z,59.94
2022-09-15T11:53:10.651Z,61.85
2022-09-15T11:54:11.018Z,60.84
2022-09-15T11:55:10.619Z,61.27
2022-09-15T11:56:10.803Z,61.60
2022-09-15T11:57:10.607Z,61.60
2022-09-15T11:58:10.594Z,62.30
2022-09-15T11:59:10.594Z,62.84
2022-09-15T12:00:10.624Z,63.45
2022-09-15T12:01:10.598Z,62.24
2022-09-15T12:02:10.583Z,62.54
2022-09-15T12:03:10.622Z,62.77
2022-09-15T12:04:10.528Z,63.07
2022-09-15T12:05:11.148Z,63.37
2022-09-15T12:06:10.537Z,63.37
2022-09-15T12:07:13.720Z,63.17
2022-09-15T12:08:10.493Z,62.87
2022-09-15T12:09:10.496Z,62.87
2022-09-15T12:10:10.514Z,62.87
2022-09-15T12:11:10.458Z,63.04
2022-09-15T12:12:10.458Z,62.44
2022-09-15T12:13:10.436Z,61.23
2022-09-15T12:14:10.467Z,61.83
2022-09-15T12:15:10.432Z,61.83
2022-09-15T12:16:10.450Z,61.33
2022-09-15T12:17:10.394Z,61.10
2022-09-15T12:18:34.278Z,60.80
2022-09-15T12:19:11.441Z,61.03
2022-09-15T12:20:10.421Z,61.23
2022-09-15T12:21:10.353Z,61.73
2022-09-15T12:22:10.362Z,61.76
2022-09-15T12:23:10.344Z,62.37
2022-09-15T12:24:10.370Z,62.77
2022-09-15T12:25:10.333Z,63.20
2022-09-15T12:26:10.307Z,63.60
2022-09-15T12:27:10.304Z,63.60
2022-09-15T12:28:10.286Z,63.81
2022-09-15T12:29:10.294Z,63.90
2022-09-15T12:30:10.278Z,64.01
2022-09-15T12:31:10.278Z,64.01
2022-09-15T12:32:10.257Z,64.01
2022-09-15T12:33:10.229Z,63.90
2022-09-15T12:34:10.219Z,63.47
2022-09-15T12:35:13.465Z,63.47
2022-09-15T12:36:10.207Z,63.37
2022-09-15T12:37:10.197Z,62.64
2022-09-15T12:38:10.199Z,62.44
2022-09-15T12:39:10.167Z,62.44
2022-09-15T12:40:10.226Z,62.74
2022-09-15T12:41:10.145Z,62.64
2022-09-15T12:42:10.151Z,62.74
2022-09-15T12:43:10.215Z,62.10
2022-09-15T12:44:10.137Z,61.44
2022-09-15T12:45:10.104Z,60.84
2022-09-15T12:46:10.146Z,60.64
2022-09-15T12:47:10.084Z,60.51
2022-09-15T12:48:10.114Z,59.60
2022-09-15T12:49:10.119Z,60.00
2022-09-15T12:50:10.049Z,59.47
2022-09-15T12:51:10.035Z,59.83
2022-09-15T12:52:10.040Z,60.57
2022-09-15T12:53:10.043Z,60.77
2022-09-15T12:54:10.032Z,61.47
2022-09-15T12:55:10.000Z,61.30
2022-09-15T12:56:10.037Z,61.90
2022-09-15T12:57:10.014Z,62.41
2022-09-15T12:58:09.997Z,62.71
2022-09-15T12:59:09.964Z,62.01
2022-09-15T13:00:09.964Z,61.80
2022-09-15T13:01:17.919Z,62.01
2022-09-15T13:02:10.998Z,63.21
2022-09-15T13:03:10.022Z,61.70
2022-09-15T13:04:09.918Z,61.30
2022-09-15T13:05:09.893Z,61.13
2022-09-15T13:06:09.952Z,61.03
2022-09-15T13:07:09.934Z,61.53
2022-09-15T13:08:09.868Z,61.23
2022-09-15T13:09:09.855Z,61.53
2022-09-15T13:10:09.835Z,61.20